Time;durP1;ratioP1;P1;durP2;ratioP2;P2;SDS_P1;SDS_P2;PMS_P1;PMS_P2;Temp;Humidity;BMP_temperature;BMP_pressure;BME280_temperature;BME280_humidity;BME280_pressure;Samples;Min_cycle;Max_cycle;Signal;HPM_P1;HPM_P2
2024/02/06 00:01:21;;;;;;;18.20;10.35;;;;;;;;;;5008999;28;20252;-81
2024/02/06 00:03:49;;;;;;;15.93;9.95;;;;;;;;;;4989817;28;23328;-81
2024/02/06 00:06:15;;;;;;;17.33;10.05;;;;;;;;;;4994210;28;20187;-82
2024/02/06 00:08:42;;;;;;;19.25;11.23;;;;;;;;;;5009619;28;20041;-81
2024/02/06 00:11:09;;;;;;;16.60;10.13;;;;;;;;;;5011277;28;20029;-82
2024/02/06 00:13:37;;;;;;;18.15;9.15;;;;;;;;;;5003233;28;20072;-81
2024/02/06 00:16:11;;;;;;;18.10;11.35;;;;;;;;;;5008759;28;20029;-82
2024/02/06 00:18:39;;;;;;;17.73;12.63;;;;;;;;;;4990105;28;20034;-82
2024/02/06 00:21:06;;;;;;;31.92;25.67;;;;;;;;;;4994014;28;20033;-82
2024/02/06 00:23:32;;;;;;;35.25;25.63;;;;;;;;;;4998683;28;20044;-84
2024/02/06 00:25:59;;;;;;;24.85;16.20;;;;;;;;;;4997450;28;20053;-84
2024/02/06 00:28:25;;;;;;;22.00;13.95;;;;;;;;;;4997066;28;20065;-84
2024/02/06 00:30:52;;;;;;;17.85;11.57;;;;;;;;;;5016164;28;20056;-84
2024/02/06 00:33:20;;;;;;;19.70;11.70;;;;;;;;;;5018697;28;20733;-82
2024/02/06 00:35:46;;;;;;;19.73;11.88;;;;;;;;;;5017260;28;20033;-82
2024/02/06 00:38:13;;;;;;;17.23;10.57;;;;;;;;;;5016127;28;20538;-83
2024/02/06 00:40:39;;;;;;;16.35;9.68;;;;;;;;;;4995768;28;20022;-83
2024/02/06 00:43:05;;;;;;;;;;;;;;;;;;4999857;28;20035;-83
2024/02/06 00:45:32;;;;;;;17.17;9.45;;;;;;;;;;4999640;28;19916;-85
2024/02/06 00:48:01;;;;;;;16.98;9.32;;;;;;;;;;5018601;28;20029;-82
2024/02/06 00:50:28;;;;;;;14.60;8.93;;;;;;;;;;5023551;28;20049;-83
2024/02/06 00:52:57;;;;;;;14.30;7.93;;;;;;;;;;5019410;28;20021;-83
2024/02/06 00:55:29;;;;;;;15.18;8.68;;;;;;;;;;5001617;28;20089;-82
2024/02/06 00:57:55;;;;;;;23.60;12.93;;;;;;;;;;5002864;28;20037;-85
2024/02/06 01:00:21;;;;;;;27.48;19.30;;;;;;;;;;5005669;28;20693;-83
2024/02/06 01:02:47;;;;;;;22.67;15.60;;;;;;;;;;5023924;28;20158;-83
2024/02/06 01:05:13;;;;;;;23.52;16.33;;;;;;;;;;5024123;28;20525;-83
2024/02/06 01:07:40;;;;;;;20.40;13.38;;;;;;;;;;5000739;28;20052;-83
2024/02/06 01:10:06;;;;;;;;;;;;;;;;;;5019698;28;20076;-84
2024/02/06 01:12:32;;;;;;;16.05;10.02;;;;;;;;;;5000004;28;20526;-82
2024/02/06 01:14:59;;;;;;;14.90;9.32;;;;;;;;;;5016875;28;20136;-85
2024/02/06 01:17:45;;;;;;;15.18;9.13;;;;;;;;;;5020251;28;20625;-85
2024/02/06 01:20:13;;;;;;;14.82;8.50;;;;;;;;;;5021534;28;20041;-84
2024/02/06 01:22:39;;;;;;;15.68;8.93;;;;;;;;;;5021702;28;20025;-83
2024/02/06 01:25:05;;;;;;;;;;;;;;;;;;5023738;28;20022;-83
2024/02/06 01:27:32;;;;;;;13.60;7.60;;;;;;;;;;5017544;28;19923;-83
2024/02/06 01:29:59;;;;;;;14.07;7.53;;;;;;;;;;4992106;28;20332;-82
2024/02/06 01:32:25;;;;;;;16.42;8.50;;;;;;;;;;4997014;28;20044;-82
2024/02/06 01:34:52;;;;;;;;;;;;;;;;;;4992788;28;20069;-81
2024/02/06 01:37:18;;;;;;;17.85;8.02;;;;;;;;;;4995356;28;19948;-82
2024/02/06 01:39:54;;;;;;;15.63;8.20;;;;;;;;;;4994360;28;20099;-82
2024/02/06 01:42:23;;;;;;;16.60;8.15;;;;;;;;;;4998934;28;20125;-83
2024/02/06 01:44:50;;;;;;;14.40;7.93;;;;;;;;;;4993272;28;20022;-83
2024/02/06 01:47:17;;;;;;;16.60;8.23;;;;;;;;;;4999839;28;20044;-83
2024/02/06 01:49:46;;;;;;;15.98;7.43;;;;;;;;;;4993769;28;20029;-83
2024/02/06 01:52:14;;;;;;;14.35;7.68;;;;;;;;;;4999860;28;20629;-83
2024/02/06 01:54:41;;;;;;;15.63;8.45;;;;;;;;;;4996474;28;20038;-83
2024/02/06 01:57:07;;;;;;;15.10;8.55;;;;;;;;;;5001324;28;20114;-82
2024/02/06 01:59:34;;;;;;;15.10;7.85;;;;;;;;;;4998325;28;20049;-83
2024/02/06 02:02:01;;;;;;;15.32;7.97;;;;;;;;;;4998185;28;20018;-83
2024/02/06 02:04:28;;;;;;;15.63;8.10;;;;;;;;;;4979889;28;20564;-82
2024/02/06 02:06:55;;;;;;;14.95;8.35;;;;;;;;;;5001059;28;20046;-82
2024/02/06 02:09:22;;;;;;;13.85;7.43;;;;;;;;;;5000232;28;20087;-83
2024/02/06 02:11:50;;;;;;;12.88;6.90;;;;;;;;;;4999443;28;20037;-83
2024/02/06 02:14:17;;;;;;;16.20;6.68;;;;;;;;;;4997342;28;20030;-82
2024/02/06 02:16:44;;;;;;;15.75;6.60;;;;;;;;;;5000540;28;20030;-84
2024/02/06 02:19:10;;;;;;;13.68;6.30;;;;;;;;;;5000585;28;20041;-83
2024/02/06 02:21:38;;;;;;;14.35;6.72;;;;;;;;;;4996230;28;20041;-82
2024/02/06 02:24:04;;;;;;;15.63;7.03;;;;;;;;;;4996903;28;20083;-82
2024/02/06 02:26:31;;;;;;;14.75;7.10;;;;;;;;;;4993342;28;20745;-84
2024/02/06 02:28:58;;;;;;;15.30;7.30;;;;;;;;;;4998709;28;20034;-83
2024/02/06 02:31:25;;;;;;;12.50;6.75;;;;;;;;;;5019918;28;20048;-82
2024/02/06 02:33:52;;;;;;;15.80;7.68;;;;;;;;;;5000802;28;20031;-82
2024/02/06 02:36:18;;;;;;;;;;;;;;;;;;5021926;28;20049;-83
2024/02/06 02:38:45;;;;;;;13.82;7.60;;;;;;;;;;4998492;28;20387;-82
2024/02/06 02:41:13;;;;;;;13.85;6.80;;;;;;;;;;4999444;28;20032;-82
2024/02/06 02:43:40;;;;;;;14.20;7.53;;;;;;;;;;5015955;28;20116;-82
2024/02/06 02:46:06;;;;;;;15.60;7.95;;;;;;;;;;5015489;28;20515;-82
2024/02/06 02:48:34;;;;;;;15.18;7.80;;;;;;;;;;4997121;28;20040;-82
2024/02/06 02:51:01;;;;;;;13.25;8.02;;;;;;;;;;4998593;28;20021;-82
2024/02/06 02:53:28;;;;;;;16.23;8.15;;;;;;;;;;5015825;28;20041;-79
2024/02/06 02:55:55;;;;;;;13.13;7.43;;;;;;;;;;5001802;28;20059;-83
2024/02/06 02:58:21;;;;;;;17.30;7.53;;;;;;;;;;5017283;28;20055;-83
2024/02/06 03:00:47;;;;;;;13.43;7.10;;;;;;;;;;4994315;28;20044;-83
2024/02/06 03:03:13;;;;;;;13.27;6.97;;;;;;;;;;4998810;28;20033;-83
2024/02/06 03:05:40;;;;;;;14.88;7.15;;;;;;;;;;5019913;28;20128;-83
2024/02/06 03:08:07;;;;;;;14.60;7.47;;;;;;;;;;5015050;28;20486;-83
2024/02/06 03:10:35;;;;;;;14.85;7.40;;;;;;;;;;5013715;28;20084;-83
2024/02/06 03:13:02;;;;;;;14.20;7.15;;;;;;;;;;5017553;28;20056;-83
2024/02/06 03:15:31;;;;;;;11.77;6.30;;;;;;;;;;4997055;28;20037;-83
2024/02/06 03:17:57;;;;;;;14.02;6.30;;;;;;;;;;5016597;28;20044;-81
2024/02/06 03:20:26;;;;;;;13.45;6.43;;;;;;;;;;5016434;28;20067;-82
2024/02/06 03:22:52;;;;;;;14.45;5.93;;;;;;;;;;5014122;28;20029;-82
2024/02/06 03:25:20;;;;;;;16.65;6.88;;;;;;;;;;5017037;28;20502;-81
2024/02/06 03:27:47;;;;;;;14.65;6.72;;;;;;;;;;5011226;28;20030;-83
2024/02/06 03:30:16;;;;;;;15.85;7.30;;;;;;;;;;4995935;28;20056;-82
2024/02/06 03:32:42;;;;;;;15.90;7.47;;;;;;;;;;4993453;28;20482;-83
2024/02/06 03:35:10;;;;;;;;;;;;;;;;;;4993995;28;20088;-81
2024/02/06 03:37:37;;;;;;;16.60;7.78;;;;;;;;;;4996139;28;19917;-82
2024/02/06 03:40:04;;;;;;;13.48;7.32;;;;;;;;;;4996097;28;20030;-84
2024/02/06 03:42:32;;;;;;;16.42;8.23;;;;;;;;;;4998179;28;20212;-85
2024/02/06 03:44:58;;;;;;;16.77;8.82;;;;;;;;;;4996940;28;20130;-84
2024/02/06 03:47:24;;;;;;;;;;;;;;;;;;4996254;28;20060;-84
2024/02/06 03:49:50;;;;;;;18.48;8.70;;;;;;;;;;4995050;28;20003;-85
2024/02/06 03:52:17;;;;;;;17.17;8.88;;;;;;;;;;4999982;28;20156;-84
2024/02/06 03:54:45;;;;;;;15.65;8.07;;;;;;;;;;4997725;28;20120;-82
2024/02/06 03:57:12;;;;;;;17.90;8.15;;;;;;;;;;4998901;28;20038;-82
2024/02/06 03:59:40;;;;;;;15.23;9.02;;;;;;;;;;5000525;28;20044;-82
2024/02/06 04:02:06;;;;;;;15.65;8.68;;;;;;;;;;5001763;28;20033;-82
2024/02/06 04:04:33;;;;;;;14.40;8.95;;;;;;;;;;5002295;28;20021;-82
2024/02/06 04:06:59;;;;;;;20.48;10.10;;;;;;;;;;5000466;28;20037;-82
2024/02/06 04:09:25;;;;;;;18.85;9.23;;;;;;;;;;4985367;28;20041;-83
2024/02/06 04:11:51;;;;;;;16.20;10.52;;;;;;;;;;5000264;28;20057;-82
2024/02/06 04:14:18;;;;;;;17.08;10.98;;;;;;;;;;5001655;28;20056;-82
2024/02/06 04:16:44;;;;;;;18.90;11.75;;;;;;;;;;4998936;28;20038;-85
2024/02/06 04:19:10;;;;;;;;;;;;;;;;;;5003792;28;20025;-83
2024/02/06 04:21:36;;;;;;;16.98;11.43;;;;;;;;;;4998158;28;20577;-83
2024/02/06 04:24:03;;;;;;;19.17;12.63;;;;;;;;;;4999781;28;20029;-82
2024/02/06 04:26:30;;;;;;;17.80;12.20;;;;;;;;;;4999430;28;20116;-83
2024/02/06 04:28:56;;;;;;;17.15;12.93;;;;;;;;;;5003255;28;20037;-85
2024/02/06 04:31:22;;;;;;;22.08;13.73;;;;;;;;;;5004859;28;20100;-83
2024/02/06 04:33:50;;;;;;;19.65;13.02;;;;;;;;;;5004695;28;20346;-83
2024/02/06 04:36:17;;;;;;;20.00;11.75;;;;;;;;;;5017014;28;20053;-83
2024/02/06 04:38:45;;;;;;;16.90;10.45;;;;;;;;;;5000769;28;20115;-82
2024/02/06 04:41:12;;;;;;;19.20;11.30;;;;;;;;;;5024805;28;20719;-82
2024/02/06 04:43:39;;;;;;;18.95;11.63;;;;;;;;;;5001728;28;20029;-82
2024/02/06 04:46:05;;;;;;;15.63;10.00;;;;;;;;;;5001774;28;20037;-83
2024/02/06 04:48:33;;;;;;;18.48;10.70;;;;;;;;;;5019048;28;20041;-83
2024/02/06 04:50:59;;;;;;;17.13;11.05;;;;;;;;;;5023335;28;20031;-84
2024/02/06 04:53:26;;;;;;;17.48;11.15;;;;;;;;;;5024347;28;20110;-82
2024/02/06 04:55:53;;;;;;;15.40;10.85;;;;;;;;;;5022543;28;20444;-84
2024/02/06 04:58:20;;;;;;;17.42;10.55;;;;;;;;;;5025913;28;20033;-83
2024/02/06 05:00:46;;;;;;;20.45;10.73;;;;;;;;;;5024763;28;20021;-82
2024/02/06 05:03:12;;;;;;;15.63;10.50;;;;;;;;;;5009122;28;20029;-82
2024/02/06 05:05:40;;;;;;;17.13;11.05;;;;;;;;;;5005547;28;20017;-82
2024/02/06 05:08:09;;;;;;;18.10;11.20;;;;;;;;;;5007022;28;20469;-82
2024/02/06 05:10:39;;;;;;;17.05;9.57;;;;;;;;;;5025982;28;20033;-82
2024/02/06 05:13:07;;;;;;;15.52;9.32;;;;;;;;;;5035092;28;20029;-83
2024/02/06 05:15:34;;;;;;;15.57;9.68;;;;;;;;;;5003483;28;20029;-83
2024/02/06 05:18:03;;;;;;;17.70;10.32;;;;;;;;;;5036405;28;20064;-84
2024/02/06 05:20:29;;;;;;;17.45;10.35;;;;;;;;;;5018395;28;20037;-84
2024/02/06 05:22:57;;;;;;;17.55;10.70;;;;;;;;;;5011882;28;20017;-83
2024/02/06 05:25:25;;;;;;;20.20;12.60;;;;;;;;;;5029438;28;20037;-82
2024/02/06 05:27:53;;;;;;;17.75;11.88;;;;;;;;;;5027400;28;20107;-84
2024/02/06 05:30:19;;;;;;;20.10;10.32;;;;;;;;;;4997920;28;20557;-83
2024/02/06 05:32:46;;;;;;;16.25;9.55;;;;;;;;;;4997497;28;20041;-83
2024/02/06 05:35:13;;;;;;;19.52;9.95;;;;;;;;;;4999594;28;20888;-83
2024/02/06 05:37:40;;;;;;;16.63;9.35;;;;;;;;;;4999580;28;20114;-83
2024/02/06 05:40:12;;;;;;;19.70;9.25;;;;;;;;;;5003419;28;20532;-83
2024/02/06 05:42:41;;;;;;;18.42;8.90;;;;;;;;;;4999890;28;20026;-83
2024/02/06 05:45:09;;;;;;;17.58;7.93;;;;;;;;;;4997097;28;20424;-83
2024/02/06 05:47:38;;;;;;;18.67;8.70;;;;;;;;;;4994796;28;20057;-84
2024/02/06 05:50:05;;;;;;;17.17;7.72;;;;;;;;;;4997692;28;20837;-83
2024/02/06 05:52:33;;;;;;;16.20;7.95;;;;;;;;;;5002004;28;20043;-83
2024/02/06 05:55:00;;;;;;;13.15;7.60;;;;;;;;;;4994109;28;20088;-83
2024/02/06 05:57:27;;;;;;;14.55;8.13;;;;;;;;;;4996124;28;20125;-83
2024/02/06 05:59:54;;;;;;;16.92;9.60;;;;;;;;;;4997012;28;20037;-83
2024/02/06 06:02:22;;;;;;;16.02;10.98;;;;;;;;;;4998904;28;20112;-83
2024/02/06 06:04:48;;;;;;;16.23;11.30;;;;;;;;;;4993362;28;21571;-83
2024/02/06 06:07:16;;;;;;;14.48;10.52;;;;;;;;;;4995569;28;20037;-82
2024/02/06 06:09:42;;;;;;;18.10;12.27;;;;;;;;;;4997905;28;20037;-84
2024/02/06 06:12:09;;;;;;;16.00;10.93;;;;;;;;;;4998235;28;20037;-83
2024/02/06 06:14:37;;;;;;;16.67;9.85;;;;;;;;;;4978502;28;20037;-83
2024/02/06 06:17:07;;;;;;;15.57;9.63;;;;;;;;;;4989463;28;20655;-83
2024/02/06 06:19:34;;;;;;;18.30;9.50;;;;;;;;;;4994387;28;20076;-83
2024/02/06 06:22:06;;;;;;;13.82;8.20;;;;;;;;;;4996605;28;20040;-82
2024/02/06 06:24:33;;;;;;;15.38;9.95;;;;;;;;;;4997096;28;20029;-83
2024/02/06 06:27:00;;;;;;;15.90;10.27;;;;;;;;;;4997042;28;20018;-83
2024/02/06 06:29:26;;;;;;;16.40;9.73;;;;;;;;;;5000062;28;20049;-83
2024/02/06 06:31:52;;;;;;;16.67;9.88;;;;;;;;;;5002822;28;20041;-82
2024/02/06 06:34:19;;;;;;;19.45;8.07;;;;;;;;;;5002178;28;20064;-82
2024/02/06 06:36:46;;;;;;;14.82;7.43;;;;;;;;;;5015396;28;20041;-82
2024/02/06 06:39:16;;;;;;;13.07;6.97;;;;;;;;;;5020508;28;20697;-83
2024/02/06 06:41:45;;;;;;;14.00;6.30;;;;;;;;;;5002442;28;20052;-83
2024/02/06 06:44:12;;;;;;;18.92;7.05;;;;;;;;;;5017588;28;20749;-83
2024/02/06 06:46:38;;;;;;;13.07;5.95;;;;;;;;;;4997449;28;20055;-83
2024/02/06 06:49:05;;;;;;;11.10;5.93;;;;;;;;;;5016336;28;20021;-83
2024/02/06 06:51:32;;;;;;;14.32;6.05;;;;;;;;;;4994611;28;20029;-83
2024/02/06 06:53:59;;;;;;;12.30;5.45;;;;;;;;;;4997958;28;20179;-83
2024/02/06 06:56:25;;;;;;;11.20;6.28;;;;;;;;;;5016174;28;20176;-82
2024/02/06 06:58:52;;;;;;;10.65;5.45;;;;;;;;;;5016351;28;20106;-83
2024/02/06 07:01:18;;;;;;;13.85;6.30;;;;;;;;;;4999666;28;20580;-83
2024/02/06 07:03:44;;;;;;;10.80;5.45;;;;;;;;;;5014219;28;20029;-83
2024/02/06 07:06:11;;;;;;;;;;;;;;;;;;5000720;28;20033;-83
2024/02/06 07:08:39;;;;;;;12.73;7.22;;;;;;;;;;4994659;28;19921;-82
2024/02/06 07:11:06;;;;;;;16.08;7.00;;;;;;;;;;5014861;28;20129;-82
2024/02/06 07:13:32;;;;;;;17.45;8.20;;;;;;;;;;5008577;28;20123;-82
2024/02/06 07:16:00;;;;;;;14.10;7.88;;;;;;;;;;4992043;28;20481;-83
2024/02/06 07:18:28;;;;;;;18.70;8.07;;;;;;;;;;4996431;28;20111;-83
2024/02/06 07:20:57;;;;;;;16.23;8.30;;;;;;;;;;5011878;28;20029;-82
2024/02/06 07:23:25;;;;;;;17.60;11.05;;;;;;;;;;4998664;28;20021;-82
2024/02/06 07:25:51;;;;;;;16.98;10.02;;;;;;;;;;4994150;28;20032;-83
2024/02/06 07:28:17;;;;;;;20.38;12.25;;;;;;;;;;4996056;28;20072;-84
2024/02/06 07:30:44;;;;;;;28.45;15.27;;;;;;;;;;4997092;28;20048;-84
2024/02/06 07:33:11;;;;;;;28.30;15.52;;;;;;;;;;5001708;28;20784;-84
2024/02/06 07:35:38;;;;;;;25.27;15.43;;;;;;;;;;4990783;28;20045;-83
2024/02/06 07:38:06;;;;;;;22.52;13.60;;;;;;;;;;4995711;28;20052;-83
2024/02/06 07:40:32;;;;;;;28.10;13.93;;;;;;;;;;4994837;28;20429;-83
2024/02/06 07:43:00;;;;;;;26.15;13.10;;;;;;;;;;4997626;28;20056;-81
2024/02/06 07:45:27;;;;;;;31.95;12.07;;;;;;;;;;5013336;28;20603;-83
2024/02/06 07:47:55;;;;;;;23.65;9.90;;;;;;;;;;4998601;28;20022;-84
2024/02/06 07:50:23;;;;;;;22.77;10.80;;;;;;;;;;4995983;28;20520;-84
2024/02/06 07:52:50;;;;;;;18.65;11.90;;;;;;;;;;4998038;28;20033;-83
2024/02/06 07:55:17;;;;;;;19.20;11.93;;;;;;;;;;4997859;28;20557;-84
2024/02/06 07:57:44;;;;;;;25.13;13.30;;;;;;;;;;5010825;28;20120;-84
2024/02/06 08:00:20;;;;;;;23.77;14.50;;;;;;;;;;5017322;28;20426;-84
2024/02/06 08:02:46;;;;;;;21.70;12.52;;;;;;;;;;5015387;28;20823;-84
2024/02/06 08:05:12;;;;;;;21.73;13.27;;;;;;;;;;5001453;28;20071;-83
2024/02/06 08:07:40;;;;;;;30.73;13.82;;;;;;;;;;4982060;28;20655;-83
2024/02/06 08:10:06;;;;;;;27.60;13.50;;;;;;;;;;5017860;28;20048;-83
2024/02/06 08:12:33;;;;;;;27.88;12.63;;;;;;;;;;4995738;28;20036;-82
2024/02/06 08:15:00;;;;;;;26.77;11.75;;;;;;;;;;5018910;28;20038;-83
2024/02/06 08:17:27;;;;;;;22.85;13.20;;;;;;;;;;5004352;28;20040;-85
2024/02/06 08:19:53;;;;;;;25.27;12.73;;;;;;;;;;5019857;28;20029;-83
2024/02/06 08:22:20;;;;;;;20.70;12.10;;;;;;;;;;5002874;28;20033;-83
2024/02/06 08:24:46;;;;;;;27.90;13.35;;;;;;;;;;5013522;28;20041;-85
2024/02/06 08:27:13;;;;;;;22.33;12.23;;;;;;;;;;4997850;28;20026;-85
2024/02/06 08:29:42;;;;;;;25.02;13.60;;;;;;;;;;4995940;28;20556;-83
2024/02/06 08:32:10;;;;;;;31.50;12.60;;;;;;;;;;5000406;28;20042;-83
2024/02/06 08:34:37;;;;;;;31.23;14.10;;;;;;;;;;4996551;28;20092;-83
2024/02/06 08:37:03;;;;;;;27.23;12.52;;;;;;;;;;5000161;28;20053;-83
2024/02/06 08:39:30;;;;;;;22.60;13.10;;;;;;;;;;4999471;28;20033;-84
2024/02/06 08:41:57;;;;;;;26.05;13.50;;;;;;;;;;4998307;28;20018;-84
2024/02/06 08:44:25;;;;;;;31.08;13.70;;;;;;;;;;5019998;28;20021;-84
2024/02/06 08:46:54;;;;;;;34.60;14.10;;;;;;;;;;5012105;28;20065;-84
2024/02/06 08:49:21;;;;;;;31.52;14.02;;;;;;;;;;5014371;28;20043;-85
2024/02/06 08:51:50;;;;;;;32.97;15.05;;;;;;;;;;5013193;28;20076;-83
2024/02/06 08:54:20;;;;;;;34.78;15.45;;;;;;;;;;5011990;28;20042;-83
2024/02/06 08:56:50;;;;;;;26.40;14.38;;;;;;;;;;4989587;28;20045;-83
2024/02/06 08:59:16;;;;;;;30.80;16.92;;;;;;;;;;4998472;28;20038;-86
2024/02/06 09:01:42;;;;;;;;;;;;;;;;;;5013913;28;20029;-84
2024/02/06 09:04:09;;;;;;;25.35;15.32;;;;;;;;;;4993573;28;19928;-82
2024/02/06 09:06:37;;;;;;;23.45;15.85;;;;;;;;;;5013236;28;20561;-84
2024/02/06 09:09:05;;;;;;;26.95;15.95;;;;;;;;;;4997613;28;20045;-84
2024/02/06 09:11:33;;;;;;;22.80;14.93;;;;;;;;;;5013976;28;20052;-85
2024/02/06 09:14:00;;;;;;;27.25;15.20;;;;;;;;;;4996417;28;20029;-84
2024/02/06 09:16:27;;;;;;;25.63;14.77;;;;;;;;;;4999024;28;20493;-84
2024/02/06 09:18:53;;;;;;;21.77;12.73;;;;;;;;;;5015188;28;20578;-84
2024/02/06 09:21:20;;;;;;;23.92;13.75;;;;;;;;;;5013576;28;20036;-84
2024/02/06 09:23:46;;;;;;;25.35;15.32;;;;;;;;;;5012937;28;20037;-84
2024/02/06 09:26:16;;;;;;;23.65;13.68;;;;;;;;;;5016762;28;20105;-84
2024/02/06 09:28:45;;;;;;;24.77;14.70;;;;;;;;;;4994877;28;20034;-84
2024/02/06 09:31:11;;;;;;;25.83;14.55;;;;;;;;;;5014241;28;20049;-85
2024/02/06 09:33:37;;;;;;;26.75;14.32;;;;;;;;;;5010087;28;20103;-83
2024/02/06 09:36:05;;;;;;;;;;;;;;;;;;5000891;28;20041;-85
2024/02/06 09:38:31;;;;;;;;;;;;;;;;;;4999278;28;20783;-85
2024/02/06 09:40:59;;;;;;;23.23;15.63;;;;;;;;;;5014741;28;19913;-81
2024/02/06 09:43:25;;;;;;;28.05;15.85;;;;;;;;;;5016809;28;20037;-83
2024/02/06 09:45:54;;;;;;;23.10;13.35;;;;;;;;;;5014615;28;20076;-85
2024/02/06 09:48:24;;;;;;;24.52;14.88;;;;;;;;;;5021083;28;20028;-83
2024/02/06 09:50:53;;;;;;;23.83;16.15;;;;;;;;;;5018673;28;20483;-82
2024/02/06 09:53:20;;;;;;;24.88;15.07;;;;;;;;;;4999517;28;20132;-83
2024/02/06 09:55:47;;;;;;;28.58;15.00;;;;;;;;;;5015719;28;20025;-82
2024/02/06 09:58:16;;;;;;;24.80;15.48;;;;;;;;;;5020615;28;20037;-83
2024/02/06 10:00:44;;;;;;;23.02;13.35;;;;;;;;;;4996746;28;20060;-83
2024/02/06 10:03:23;;;;;;;22.77;14.60;;;;;;;;;;4997320;28;20073;-83
2024/02/06 10:05:50;;;;;;;24.15;13.82;;;;;;;;;;5014076;28;22208;-85
2024/02/06 10:08:20;;;;;;;26.60;16.05;;;;;;;;;;4977548;28;20509;-82
2024/02/06 10:10:47;;;;;;;29.35;17.10;;;;;;;;;;4997188;28;20034;-82
2024/02/06 10:13:15;;;;;;;26.67;16.40;;;;;;;;;;5017694;28;20485;-83
2024/02/06 10:15:43;;;;;;;27.40;15.00;;;;;;;;;;5016489;28;20191;-83
2024/02/06 10:18:10;;;;;;;24.75;16.35;;;;;;;;;;5003729;28;20658;-82
2024/02/06 10:20:48;;;;;;;30.38;18.55;;;;;;;;;;5013566;28;20026;-82
2024/02/06 10:23:15;;;;;;;32.65;20.88;;;;;;;;;;5017214;28;20112;-82
2024/02/06 10:25:43;;;;;;;36.28;20.42;;;;;;;;;;4993034;28;20126;-84
2024/02/06 10:28:10;;;;;;;38.53;20.83;;;;;;;;;;5016384;28;20176;-86
2024/02/06 10:30:39;;;;;;;32.70;21.13;;;;;;;;;;5012753;28;20050;-83
2024/02/06 10:33:14;;;;;;;33.55;21.33;;;;;;;;;;5016049;28;20040;-83
2024/02/06 10:35:41;;;;;;;30.88;21.63;;;;;;;;;;5016213;28;20056;-85
2024/02/06 10:38:15;;;;;;;27.33;18.98;;;;;;;;;;5017199;28;20178;-83
2024/02/06 10:40:42;;;;;;;32.22;20.52;;;;;;;;;;4995522;28;20009;-82
2024/02/06 10:43:10;;;;;;;34.75;19.38;;;;;;;;;;4999348;28;20087;-82
2024/02/06 10:45:37;;;;;;;25.35;16.08;;;;;;;;;;5009762;28;20052;-83
2024/02/06 10:48:07;;;;;;;26.77;16.90;;;;;;;;;;4997903;28;20791;-83
2024/02/06 10:50:35;;;;;;;24.17;15.15;;;;;;;;;;5010547;28;20091;-83
2024/02/06 10:53:04;;;;;;;20.08;13.52;;;;;;;;;;4998769;28;20041;-83
2024/02/06 10:55:32;;;;;;;26.38;13.30;;;;;;;;;;4990760;28;20044;-83
2024/02/06 10:58:05;;;;;;;22.05;12.05;;;;;;;;;;5014363;28;20057;-83
2024/02/06 11:00:33;;;;;;;21.65;13.05;;;;;;;;;;5010281;28;20689;-83
2024/02/06 11:03:02;;;;;;;22.17;13.80;;;;;;;;;;4995676;28;20025;-83
2024/02/06 11:05:48;;;;;;;24.10;14.52;;;;;;;;;;4990862;28;20056;-83
2024/02/06 11:08:20;;;;;;;22.60;13.23;;;;;;;;;;4996771;28;20033;-82
2024/02/06 11:10:50;;;;;;;21.88;10.40;;;;;;;;;;4994595;28;20793;-83
2024/02/06 11:13:27;;;;;;;16.92;9.38;;;;;;;;;;4995839;28;20056;-84
2024/02/06 11:15:54;;;;;;;15.52;8.60;;;;;;;;;;5011062;28;20089;-83
2024/02/06 11:18:28;;;;;;;18.73;9.98;;;;;;;;;;5016944;28;20048;-85
2024/02/06 11:20:59;;;;;;;17.27;10.38;;;;;;;;;;4993444;28;20122;-82
2024/02/06 11:23:27;;;;;;;18.65;9.98;;;;;;;;;;5000001;28;20038;-85
2024/02/06 11:25:55;;;;;;;17.70;10.98;;;;;;;;;;4994337;28;20041;-75
2024/02/06 11:28:22;;;;;;;19.23;10.95;;;;;;;;;;4977821;28;20979;-76
2024/02/06 11:30:50;;;;;;;19.15;10.65;;;;;;;;;;5007401;28;20046;-76
2024/02/06 11:33:19;;;;;;;17.60;10.10;;;;;;;;;;4996855;28;20078;-74
2024/02/06 11:35:45;;;;;;;18.05;9.15;;;;;;;;;;5008817;28;20029;-74
2024/02/06 11:38:12;;;;;;;19.30;8.73;;;;;;;;;;4992724;28;20115;-74
2024/02/06 11:40:41;;;;;;;17.75;9.32;;;;;;;;;;4993886;28;20033;-74
2024/02/06 11:43:08;;;;;;;16.92;7.50;;;;;;;;;;5010518;28;20049;-74
2024/02/06 11:45:36;;;;;;;15.32;7.10;;;;;;;;;;4989171;28;20108;-74
2024/02/06 11:48:04;;;;;;;15.02;7.22;;;;;;;;;;5010428;28;20124;-75
2024/02/06 11:50:36;;;;;;;12.52;6.50;;;;;;;;;;5010644;28;20041;-73
2024/02/06 11:53:05;;;;;;;13.05;6.63;;;;;;;;;;4987086;28;20846;-74
2024/02/06 11:55:32;;;;;;;14.77;5.85;;;;;;;;;;5007023;28;20029;-74
2024/02/06 11:58:00;;;;;;;13.13;6.22;;;;;;;;;;4993715;28;20179;-75
2024/02/06 12:00:27;;;;;;;16.13;7.28;;;;;;;;;;4994154;28;20040;-75
2024/02/06 12:02:53;;;;;;;18.13;7.75;;;;;;;;;;4991540;28;20509;-74
2024/02/06 12:05:21;;;;;;;14.77;7.18;;;;;;;;;;4992558;28;20025;-74
2024/02/06 12:08:01;;;;;;;16.88;6.93;;;;;;;;;;4989358;28;20026;-75
2024/02/06 12:10:31;;;;;;;14.90;7.13;;;;;;;;;;4984818;28;20029;-75
2024/02/06 12:13:04;;;;;;;15.63;6.85;;;;;;;;;;5008533;28;20441;-74
2024/02/06 12:15:37;;;;;;;18.00;7.72;;;;;;;;;;5008822;28;20446;-74
2024/02/06 12:18:10;;;;;;;14.23;7.15;;;;;;;;;;4994159;28;20049;-74
2024/02/06 12:20:38;;;;;;;16.75;7.93;;;;;;;;;;4995234;28;20040;-74
2024/02/06 12:23:06;;;;;;;18.88;8.30;;;;;;;;;;5010898;28;20014;-73
2024/02/06 12:25:53;;;;;;;17.45;7.35;;;;;;;;;;5011675;28;20029;-74
2024/02/06 12:28:20;;;;;;;;;;;;;;;;;;5011626;28;20043;-73
2024/02/06 12:30:49;;;;;;;16.55;6.28;;;;;;;;;;5012216;28;19932;-74
2024/02/06 12:33:18;;;;;;;16.55;6.40;;;;;;;;;;5015657;28;20029;-74
2024/02/06 12:35:44;;;;;;;13.20;6.22;;;;;;;;;;4994609;28;20045;-74
2024/02/06 12:38:12;;;;;;;14.55;6.63;;;;;;;;;;4993455;28;20029;-73
2024/02/06 12:40:39;;;;;;;15.40;6.75;;;;;;;;;;5010129;28;20095;-74
2024/02/06 12:43:07;;;;;;;15.70;6.75;;;;;;;;;;4995181;28;20044;-74
2024/02/06 12:45:37;;;;;;;15.15;6.43;;;;;;;;;;4991928;28;20029;-73
2024/02/06 12:48:05;;;;;;;16.55;6.97;;;;;;;;;;4996170;28;20072;-73
2024/02/06 12:50:31;;;;;;;19.15;7.43;;;;;;;;;;4990255;28;20048;-75
2024/02/06 12:52:59;;;;;;;17.70;8.50;;;;;;;;;;4991579;28;20040;-73
2024/02/06 12:55:30;;;;;;;16.83;7.50;;;;;;;;;;5010179;28;20064;-73
2024/02/06 12:58:00;;;;;;;22.08;8.02;;;;;;;;;;4997779;28;20041;-73
2024/02/06 13:00:26;;;;;;;16.02;6.88;;;;;;;;;;5011365;28;20026;-75
2024/02/06 13:03:01;;;;;;;15.00;6.68;;;;;;;;;;4994006;28;20040;-73
2024/02/06 13:05:30;;;;;;;16.85;6.82;;;;;;;;;;4993720;28;20425;-74
2024/02/06 13:08:15;;;;;;;16.80;6.82;;;;;;;;;;5013659;28;20029;-73
2024/02/06 13:10:42;;;;;;;14.80;6.20;;;;;;;;;;4996648;28;20040;-75
2024/02/06 13:13:09;;;;;;;13.98;5.90;;;;;;;;;;4994385;28;20493;-75
2024/02/06 13:15:35;;;;;;;16.80;6.65;;;;;;;;;;4987614;28;20069;-74
2024/02/06 13:18:05;;;;;;;14.68;5.75;;;;;;;;;;5011083;28;20038;-75
2024/02/06 13:20:39;;;;;;;15.55;5.95;;;;;;;;;;5006364;28;20119;-74
2024/02/06 13:23:12;;;;;;;12.35;5.60;;;;;;;;;;5005851;28;20025;-74
2024/02/06 13:25:39;;;;;;;14.27;5.15;;;;;;;;;;5000588;28;20076;-74
2024/02/06 13:28:07;;;;;;;13.88;5.50;;;;;;;;;;5012057;28;20033;-73
2024/02/06 13:30:34;;;;;;;15.98;5.68;;;;;;;;;;4987259;28;21663;-75
2024/02/06 13:33:03;;;;;;;14.13;5.85;;;;;;;;;;4990035;28;20037;-75
2024/02/06 13:35:30;;;;;;;14.20;5.28;;;;;;;;;;4990913;28;20025;-75
2024/02/06 13:38:00;;;;;;;17.73;5.18;;;;;;;;;;4987047;28;20033;-74
2024/02/06 13:40:26;;;;;;;16.90;5.60;;;;;;;;;;4988536;28;20026;-74
2024/02/06 13:42:54;;;;;;;14.23;4.93;;;;;;;;;;4988013;28;20037;-74
2024/02/06 13:45:22;;;;;;;13.13;5.20;;;;;;;;;;4974188;28;20037;-76
2024/02/06 13:47:49;;;;;;;14.48;5.60;;;;;;;;;;4988019;28;21367;-76
2024/02/06 13:50:20;;;;;;;12.23;4.95;;;;;;;;;;4989393;28;20506;-74
2024/02/06 13:52:50;;;;;;;12.73;4.93;;;;;;;;;;4983977;28;20045;-74
2024/02/06 13:55:18;;;;;;;14.52;5.50;;;;;;;;;;4986380;28;20132;-74
2024/02/06 13:57:57;;;;;;;13.80;4.75;;;;;;;;;;4987370;28;20030;-74
2024/02/06 14:00:27;;;;;;;13.50;4.90;;;;;;;;;;4988021;28;20048;-73
2024/02/06 14:02:54;;;;;;;13.25;4.78;;;;;;;;;;4985532;28;20497;-74
2024/02/06 14:05:23;;;;;;;14.38;5.07;;;;;;;;;;4993719;28;20143;-74
2024/02/06 14:07:50;;;;;;;17.10;5.57;;;;;;;;;;4975070;28;20038;-73
2024/02/06 14:10:19;;;;;;;21.85;5.38;;;;;;;;;;4989773;28;20049;-74
2024/02/06 14:12:47;;;;;;;13.25;4.80;;;;;;;;;;4990765;28;20236;-77
2024/02/06 14:15:17;;;;;;;14.23;4.45;;;;;;;;;;4987160;28;20030;-74
2024/02/06 14:17:47;;;;;;;15.13;4.72;;;;;;;;;;4989565;28;20053;-74
2024/02/06 14:20:15;;;;;;;16.63;4.57;;;;;;;;;;4986396;28;20077;-74
2024/02/06 14:22:42;;;;;;;13.13;4.65;;;;;;;;;;4988174;28;20038;-76
2024/02/06 14:25:10;;;;;;;14.52;4.70;;;;;;;;;;4990769;28;20021;-74
2024/02/06 14:27:37;;;;;;;12.45;4.28;;;;;;;;;;4988904;28;20025;-75
2024/02/06 14:30:04;;;;;;;13.15;4.32;;;;;;;;;;4994547;28;20123;-76
2024/02/06 14:32:33;;;;;;;11.82;4.68;;;;;;;;;;4985574;28;20568;-74